sensor_id;sensor_type;location;lat;lon;timestamp;pressure;altitude;pressure_sealevel;temperature;humidity
16030;BME280;34770;49.272;11.070;2022-11-24T02:10:32;97053.34;;;4.82;100.00
16030;BME280;34770;49.272;11.070;2022-11-24T02:12:57;97010.44;;;4.51;100.00
16030;BME280;34770;49.272;11.070;2022-11-24T02:15:24;97061.75;;;4.86;100.00
16030;BME280;34770;49.272;11.070;2022-11-24T02:17:50;96977.88;;;4.23;100.00
16030;BME280;34770;49.272;11.070;2022-11-24T02:20:16;96989.91;;;4.40;100.00
16030;BME280;34770;49.272;11.070;2022-11-24T02:28:12;96972.66;;;4.30;100.00
16030;BME280;34770;49.272;11.070;2022-11-24T02:30:39;97068.38;;;4.93;100.00
16030;BME280;34770;49.272;11.070;2022-11-24T02:33:04;97068.38;;;4.93;100.00
16030;BME280;34770;49.272;11.070;2022-11-24T02:35:30;96988.31;;;4.39;100.00
16030;BME280;34770;49.272;11.070;2022-11-24T02:37:56;96990.78;;;4.31;100.00
16030;BME280;34770;49.272;11.070;2022-11-24T02:40:24;97088.19;;;4.87;100.00
16030;BME280;34770;49.272;11.070;2022-11-24T02:42:57;97011.97;;;4.40;100.00
16030;BME280;34770;49.272;11.070;2022-11-24T02:45:25;97036.16;;;4.34;100.00
16030;BME280;34770;49.272;11.070;2022-11-24T02:47:51;97010.47;;;4.21;100.00
16030;BME280;34770;49.272;11.070;2022-11-24T02:50:16;97084.50;;;4.83;100.00
16030;BME280;34770;49.272;11.070;2022-11-24T02:52:42;97000.09;;;4.18;100.00
16030;BME280;34770;49.272;11.070;2022-11-24T02:55:07;97089.19;;;4.82;100.00
16030;BME280;34770;49.272;11.070;2022-11-24T02:57:33;97011.44;;;4.17;100.00
16030;BME280;34770;49.272;11.070;2022-11-24T02:59:58;97045.78;;;4.49;100.00
16030;BME280;34770;49.272;11.070;2022-11-24T03:02:24;97035.28;;;4.42;100.00
16030;BME280;34770;49.272;11.070;2022-11-24T03:04:49;97016.13;;;4.25;100.00
16030;BME280;34770;49.272;11.070;2022-11-24T03:07:15;97025.38;;;4.20;100.00
16030;BME280;34770;49.272;11.070;2022-11-24T03:09:41;97098.31;;;4.74;100.00
16030;BME280;34770;49.272;11.070;2022-11-24T03:12:06;97018.09;;;4.15;100.00
16030;BME280;34770;49.272;11.070;2022-11-24T03:14:32;97046.56;;;4.28;100.00
16030;BME280;34770;49.272;11.070;2022-11-24T03:16:57;97105.50;;;4.66;100.00
16030;BME280;34770;49.272;11.070;2022-11-24T03:19:22;97066.91;;;4.36;100.00
16030;BME280;34770;49.272;11.070;2022-11-24T03:21:48;97075.97;;;4.45;100.00
16030;BME280;34770;49.272;11.070;2022-11-24T03:24:13;97064.50;;;4.35;100.00
16030;BME280;34770;49.272;11.070;2022-11-24T03:26:39;97050.78;;;4.26;100.00
16030;BME280;34770;49.272;11.070;2022-11-24T03:29:05;97059.75;;;4.14;100.00
16030;BME280;34770;49.272;11.070;2022-11-24T03:31:31;97015.09;;;3.99;100.00
16030;BME280;34770;49.272;11.070;2022-11-24T03:33:56;97106.66;;;4.65;100.00
16030;BME280;34770;49.272;11.070;2022-11-24T03:36:22;97057.28;;;4.21;100.00
16030;BME280;34770;49.272;11.070;2022-11-24T03:38:47;97117.34;;;4.67;100.00
16030;BME280;34770;49.272;11.070;2022-11-24T03:41:13;97045.03;;;4.10;100.00
16030;BME280;34770;49.272;11.070;2022-11-24T03:43:39;97052.47;;;4.09;100.00
16030;BME280;34770;49.272;11.070;2022-11-24T03:46:04;97033.72;;;4.03;100.00
16030;BME280;34770;49.272;11.070;2022-11-24T03:48:30;97039.97;;;4.12;100.00
16030;BME280;34770;49.272;11.070;2022-11-24T03:50:57;97086.03;;;4.41;100.00
16030;BME280;34770;49.272;11.070;2022-11-24T03:53:24;97094.44;;;4.45;100.00
16030;BME280;34770;49.272;11.070;2022-11-24T03:55:50;97025.03;;;3.92;100.00
16030;BME280;34770;49.272;11.070;2022-11-24T03:58:16;97117.69;;;4.65;100.00
16030;BME280;34770;49.272;11.070;2022-11-24T04:00:41;97026.78;;;3.96;100.00
16030;BME280;34770;49.272;11.070;2022-11-24T04:03:07;97121.44;;;4.60;100.00
16030;BME280;34770;49.272;11.070;2022-11-24T04:05:33;97107.34;;;4.53;100.00
16030;BME280;34770;49.272;11.070;2022-11-24T04:08:01;97125.56;;;4.75;100.00
16030;BME280;34770;49.272;11.070;2022-11-24T04:10:28;97037.31;;;4.24;100.00
16030;BME280;34770;49.272;11.070;2022-11-24T04:12:54;97062.25;;;4.37;100.00
16030;BME280;34770;49.272;11.070;2022-11-24T04:15:20;97134.28;;;5.07;100.00
16030;BME280;34770;49.272;11.070;2022-11-24T04:17:47;97103.88;;;4.95;100.00
16030;BME280;34770;49.272;11.070;2022-11-24T04:20:22;97095.56;;;4.74;100.00
16030;BME280;34770;49.272;11.070;2022-11-24T04:22:49;97145.38;;;4.99;100.00
16030;BME280;34770;49.272;11.070;2022-11-24T04:25:15;97140.75;;;5.11;100.00
16030;BME280;34770;49.272;11.070;2022-11-24T04:27:41;97150.13;;;5.19;100.00
16030;BME280;34770;49.272;11.070;2022-11-24T04:30:07;97094.53;;;5.08;100.00
16030;BME280;34770;49.272;11.070;2022-11-24T04:32:32;97080.13;;;5.03;100.00
16030;BME280;34770;49.272;11.070;2022-11-24T04:34:58;97093.66;;;5.17;100.00
16030;BME280;34770;49.272;11.070;2022-11-24T04:37:23;97087.47;;;5.20;100.00
16030;BME280;34770;49.272;11.070;2022-11-24T04:39:48;97104.69;;;5.38;100.00
16030;BME280;34770;49.272;11.070;2022-11-24T04:42:14;97058.59;;;5.17;100.00
16030;BME280;34770;49.272;11.070;2022-11-24T04:44:39;97088.34;;;5.33;100.00
16030;BME280;34770;49.272;11.070;2022-11-24T04:47:05;97101.91;;;5.38;100.00
16030;BME280;34770;49.272;11.070;2022-11-24T04:49:30;97171.38;;;5.82;100.00
16030;BME280;34770;49.272;11.070;2022-11-24T04:51:56;97148.28;;;5.66;100.00
16030;BME280;34770;49.272;11.070;2022-11-24T04:54:21;97178.16;;;5.85;100.00
16030;BME280;34770;49.272;11.070;2022-11-24T04:56:50;97151.78;;;5.75;100.00
16030;BME280;34770;49.272;11.070;2022-11-24T04:59:16;97164.31;;;5.72;100.00
16030;BME280;34770;49.272;11.070;2022-11-24T05:01:43;97101.25;;;5.41;100.00
16030;BME280;34770;49.272;11.070;2022-11-24T05:04:14;97100.66;;;5.35;100.00
16030;BME280;34770;49.272;11.070;2022-11-24T05:06:40;97177.09;;;5.77;100.00
16030;BME280;34770;49.272;11.070;2022-11-24T05:09:06;97191.09;;;5.93;100.00
16030;BME280;34770;49.272;11.070;2022-11-24T05:11:31;97202.13;;;5.93;100.00
16030;BME280;34770;49.272;11.070;2022-11-24T05:13:57;97127.88;;;5.37;100.00
16030;BME280;34770;49.272;11.070;2022-11-24T05:16:22;97150.38;;;5.48;100.00
16030;BME280;34770;49.272;11.070;2022-11-24T05:18:48;97217.75;;;5.89;100.00
16030;BME280;34770;49.272;11.070;2022-11-24T05:21:13;97108.72;;;5.19;100.00
16030;BME280;34770;49.272;11.070;2022-11-24T05:23:39;97123.66;;;5.18;100.00
16030;BME280;34770;49.272;11.070;2022-11-24T05:26:04;97221.59;;;5.75;100.00
16030;BME280;34770;49.272;11.070;2022-11-24T05:28:30;97227.94;;;5.76;100.00
16030;BME280;34770;49.272;11.070;2022-11-24T05:31:02;97179.31;;;5.41;100.00
16030;BME280;34770;49.272;11.070;2022-11-24T05:33:29;97200.78;;;5.36;100.00
16030;BME280;34770;49.272;11.070;2022-11-24T05:36:02;97177.50;;;5.24;100.00
16030;BME280;34770;49.272;11.070;2022-11-24T05:38:28;97222.34;;;5.42;100.00
16030;BME280;34770;49.272;11.070;2022-11-24T05:40:59;97252.63;;;5.51;100.00
16030;BME280;34770;49.272;11.070;2022-11-24T05:43:24;97246.31;;;5.51;100.00
16030;BME280;34770;49.272;11.070;2022-11-24T05:45:50;97244.56;;;5.46;100.00
16030;BME280;34770;49.272;11.070;2022-11-24T05:48:15;97191.94;;;5.00;100.00
16030;BME280;34770;49.272;11.070;2022-11-24T05:50:41;97240.44;;;5.31;100.00
16030;BME280;34770;49.272;11.070;2022-11-24T05:53:08;97192.78;;;4.92;100.00
16030;BME280;34770;49.272;11.070;2022-11-24T05:55:35;97249.09;;;5.21;100.00
16030;BME280;34770;49.272;11.070;2022-11-24T05:58:02;97242.50;;;5.13;100.00
16030;BME280;34770;49.272;11.070;2022-11-24T06:00:28;97194.22;;;4.68;100.00
16030;BME280;34770;49.272;11.070;2022-11-24T06:02:56;97190.34;;;4.60;100.00
16030;BME280;34770;49.272;11.070;2022-11-24T06:05:22;97240.94;;;4.94;100.00
16030;BME280;34770;49.272;11.070;2022-11-24T06:07:47;97184.72;;;4.48;100.00
16030;BME280;34770;49.272;11.070;2022-11-24T06:10:17;97255.91;;;4.85;100.00
16030;BME280;34770;49.272;11.070;2022-11-24T06:12:43;97166.19;;;4.19;100.00
16030;BME280;34770;49.272;11.070;2022-11-24T06:15:09;97140.13;;;3.98;100.00
16030;BME280;34770;49.272;11.070;2022-11-24T06:17:35;97169.75;;;4.10;100.00
16030;BME280;34770;49.272;11.070;2022-11-24T06:20:01;97273.94;;;4.82;100.00
16030;BME280;34770;49.272;11.070;2022-11-24T06:22:26;97240.72;;;4.70;100.00
16030;BME280;34770;49.272;11.070;2022-11-24T06:24:52;97271.97;;;4.91;100.00
16030;BME280;34770;49.272;11.070;2022-11-24T06:27:17;97272.59;;;4.97;100.00
16030;BME280;34770;49.272;11.070;2022-11-24T06:29:43;97270.53;;;4.85;100.00
16030;BME280;34770;49.272;11.070;2022-11-24T06:32:08;97223.19;;;4.36;100.00
16030;BME280;34770;49.272;11.070;2022-11-24T06:34:34;97272.84;;;4.74;100.00
16030;BME280;34770;49.272;11.070;2022-11-24T06:36:59;97191.78;;;4.19;100.00
16030;BME280;34770;49.272;11.070;2022-11-24T06:39:25;97195.19;;;4.16;100.00
16030;BME280;34770;49.272;11.070;2022-11-24T06:41:51;97272.19;;;4.69;100.00
16030;BME280;34770;49.272;11.070;2022-11-24T06:44:16;97197.47;;;4.14;100.00
16030;BME280;34770;49.272;11.070;2022-11-24T06:46:42;97262.47;;;4.62;100.00
16030;BME280;34770;49.272;11.070;2022-11-24T06:49:07;97264.56;;;4.74;100.00
16030;BME280;34770;49.272;11.070;2022-11-24T06:51:32;97251.47;;;4.62;100.00
16030;BME280;34770;49.272;11.070;2022-11-24T06:53:58;97264.72;;;4.78;100.00
16030;BME280;34770;49.272;11.070;2022-11-24T06:56:23;97276.03;;;4.85;100.00
16030;BME280;34770;49.272;11.070;2022-11-24T06:58:51;97199.31;;;4.40;100.00
16030;BME280;34770;49.272;11.070;2022-11-24T07:01:18;97258.16;;;4.91;100.00
16030;BME280;34770;49.272;11.070;2022-11-24T07:03:45;97221.31;;;4.57;100.00
16030;BME280;34770;49.272;11.070;2022-11-24T07:06:10;97282.44;;;5.07;100.00
16030;BME280;34770;49.272;11.070;2022-11-24T07:08:36;97212.88;;;4.62;100.00
16030;BME280;34770;49.272;11.070;2022-11-24T07:11:06;97283.69;;;5.18;100.00
16030;BME280;34770;49.272;11.070;2022-11-24T07:13:32;97288.34;;;5.26;100.00
16030;BME280;34770;49.272;11.070;2022-11-24T07:15:58;97233.50;;;4.95;100.00
16030;BME280;34770;49.272;11.070;2022-11-24T07:18:23;97209.88;;;4.76;100.00
16030;BME280;34770;49.272;11.070;2022-11-24T07:20:49;97227.34;;;4.89;100.00
16030;BME280;34770;49.272;11.070;2022-11-24T07:23:14;97295.72;;;5.43;100.00
16030;BME280;34770;49.272;11.070;2022-11-24T07:25:39;97230.06;;;4.98;100.00
16030;BME280;34770;49.272;11.070;2022-11-24T07:28:05;97214.97;;;4.95;100.00
16030;BME280;34770;49.272;11.070;2022-11-24T07:30:30;97305.56;;;5.53;100.00
16030;BME280;34770;49.272;11.070;2022-11-24T07:33:02;97226.84;;;4.96;100.00
16030;BME280;34770;49.272;11.070;2022-11-24T07:35:28;97304.28;;;5.51;100.00
16030;BME280;34770;49.272;11.070;2022-11-24T07:37:56;97288.28;;;5.35;100.00
16030;BME280;34770;49.272;11.070;2022-11-24T07:40:23;97244.19;;;4.97;100.00
16030;BME280;34770;49.272;11.070;2022-11-24T07:42:50;97264.03;;;5.20;100.00
16030;BME280;34770;49.272;11.070;2022-11-24T07:45:15;97311.38;;;5.61;100.00
16030;BME280;34770;49.272;11.070;2022-11-24T07:47:41;97253.81;;;5.20;100.00
16030;BME280;34770;49.272;11.070;2022-11-24T07:50:07;97236.97;;;5.13;100.00
16030;BME280;34770;49.272;11.070;2022-11-24T07:52:36;97337.25;;;5.77;100.00
16030;BME280;34770;49.272;11.070;2022-11-24T07:55:02;97235.84;;;5.14;100.00
16030;BME280;34770;49.272;11.070;2022-11-24T07:57:28;97261.50;;;5.36;100.00
16030;BME280;34770;49.272;11.070;2022-11-24T07:59:57;97256.94;;;5.40;100.00
16030;BME280;34770;49.272;11.070;2022-11-24T08:02:22;97318.38;;;5.79;100.00
16030;BME280;34770;49.272;11.070;2022-11-24T08:04:48;97272.72;;;5.61;100.00
16030;BME280;34770;49.272;11.070;2022-11-24T08:07:13;97292.88;;;5.82;100.00
16030;BME280;34770;49.272;11.070;2022-11-24T08:14:48;97266.22;;;5.56;100.00
16030;BME280;34770;49.272;11.070;2022-11-24T08:17:15;97277.81;;;5.50;100.00
16030;BME280;34770;49.272;11.070;2022-11-24T08:19:43;97250.00;;;5.34;100.00
16030;BME280;34770;49.272;11.070;2022-11-24T08:22:09;97250.38;;;5.23;100.00
16030;BME280;34770;49.272;11.070;2022-11-24T08:24:35;97367.34;;;6.00;100.00
16030;BME280;34770;49.272;11.070;2022-11-24T08:27:02;97365.63;;;5.86;100.00
16030;BME280;34770;49.272;11.070;2022-11-24T08:47:34;97311.66;;;5.89;100.00
16030;BME280;34770;49.272;11.070;2022-11-24T08:50:00;97230.69;;;5.34;100.00
16030;BME280;34770;49.272;11.070;2022-11-24T08:52:27;97354.97;;;6.27;100.00
16030;BME280;34770;49.272;11.070;2022-11-24T08:54:53;97261.66;;;5.82;100.00
16030;BME280;34770;49.272;11.070;2022-11-24T08:57:19;97275.19;;;6.04;100.00
16030;BME280;34770;49.272;11.070;2022-11-24T08:59:47;97307.19;;;6.60;100.00
16030;BME280;34770;49.272;11.070;2022-11-24T09:02:14;97352.69;;;6.96;100.00
16030;BME280;34770;49.272;11.070;2022-11-24T09:04:43;97241.69;;;6.39;100.00
16030;BME280;34770;49.272;11.070;2022-11-24T09:07:24;97360.63;;;6.98;100.00
16030;BME280;34770;49.272;11.070;2022-11-24T09:09:52;97255.31;;;6.11;100.00
16030;BME280;34770;49.272;11.070;2022-11-24T09:12:20;97242.16;;;5.87;100.00
16030;BME280;34770;49.272;11.070;2022-11-24T09:14:47;97255.13;;;5.86;100.00
16030;BME280;34770;49.272;11.070;2022-11-24T09:17:13;97344.56;;;6.24;100.00
16030;BME280;34770;49.272;11.070;2022-11-24T09:19:42;97372.22;;;6.45;100.00
16030;BME280;34770;49.272;11.070;2022-11-24T09:22:08;97301.44;;;5.89;100.00
16030;BME280;34770;49.272;11.070;2022-11-24T09:24:35;97316.66;;;5.96;100.00
16030;BME280;34770;49.272;11.070;2022-11-24T09:27:01;97384.28;;;6.41;100.00
16030;BME280;34770;49.272;11.070;2022-11-24T09:29:27;97256.69;;;5.54;100.00
16030;BME280;34770;49.272;11.070;2022-11-24T09:31:54;97257.16;;;5.56;100.00
16030;BME280;34770;49.272;11.070;2022-11-24T09:34:20;97254.66;;;5.63;100.00
16030;BME280;34770;49.272;11.070;2022-11-24T09:36:46;97388.34;;;6.43;100.00
16030;BME280;34770;49.272;11.070;2022-11-24T09:39:13;97272.03;;;5.64;100.00
16030;BME280;34770;49.272;11.070;2022-11-24T09:46:57;97360.63;;;6.31;100.00
16030;BME280;34770;49.272;11.070;2022-11-24T09:49:34;97399.00;;;6.53;100.00
16030;BME280;34770;49.272;11.070;2022-11-24T09:52:08;97362.03;;;6.16;100.00
16030;BME280;34770;49.272;11.070;2022-11-24T09:54:36;97289.50;;;5.55;100.00
16030;BME280;34770;49.272;11.070;2022-11-24T09:57:09;97294.81;;;5.61;100.00
16030;BME280;34770;49.272;11.070;2022-11-24T09:59:36;97323.47;;;5.77;100.00
16030;BME280;34770;49.272;11.070;2022-11-24T10:02:09;97294.81;;;5.61;100.00
16030;BME280;34770;49.272;11.070;2022-11-24T10:04:45;97294.81;;;5.61;100.00
16030;BME280;34770;49.272;11.070;2022-11-24T10:07:36;97413.94;;;6.31;100.00
16030;BME280;34770;49.272;11.070;2022-11-24T10:10:17;97415.22;;;6.34;100.00
16030;BME280;34770;49.272;11.070;2022-11-24T10:15:24;97346.06;;;5.70;100.00
16030;BME280;34770;49.272;11.070;2022-11-24T10:23:44;97382.53;;;5.85;100.00
16030;BME280;34770;49.272;11.070;2022-11-24T10:26:34;97307.47;;;5.32;100.00
16030;BME280;34770;49.272;11.070;2022-11-24T10:29:01;97406.34;;;5.98;100.00
16030;BME280;34770;49.272;11.070;2022-11-24T10:31:35;97291.63;;;5.20;100.00
16030;BME280;34770;49.272;11.070;2022-11-24T10:34:15;97333.03;;;5.50;100.00
16030;BME280;34770;49.272;11.070;2022-11-24T10:39:40;97422.69;;;6.12;100.00
16030;BME280;34770;49.272;11.070;2022-11-24T10:42:29;97388.97;;;5.98;100.00
16030;BME280;34770;49.272;11.070;2022-11-24T10:45:02;97341.81;;;5.73;100.00
16030;BME280;34770;49.272;11.070;2022-11-24T10:47:34;97308.91;;;5.68;100.00
16030;BME280;34770;49.272;11.070;2022-11-24T10:50:12;97416.91;;;6.68;100.00
16030;BME280;34770;49.272;11.070;2022-11-24T10:52:44;97422.78;;;6.67;100.00
16030;BME280;34770;49.272;11.070;2022-11-24T10:55:12;97288.22;;;5.95;100.00
16030;BME280;34770;49.272;11.070;2022-11-24T10:57:40;97300.56;;;5.98;100.00
16030;BME280;34770;49.272;11.070;2022-11-24T11:02:46;97311.25;;;5.78;100.00
16030;BME280;34770;49.272;11.070;2022-11-24T11:10:24;97295.66;;;5.52;100.00
16030;BME280;34770;49.272;11.070;2022-11-24T11:12:50;97289.00;;;5.53;100.00
16030;BME280;34770;49.272;11.070;2022-11-24T11:15:25;97285.75;;;5.51;100.00
16030;BME280;34770;49.272;11.070;2022-11-24T11:17:57;97418.41;;;6.45;100.00
16030;BME280;34770;49.272;11.070;2022-11-24T11:20:32;97420.22;;;6.41;100.00
16030;BME280;34770;49.272;11.070;2022-11-24T11:23:01;97350.19;;;5.85;100.00
16030;BME280;34770;49.272;11.070;2022-11-24T11:25:37;97442.34;;;6.41;100.00
16030;BME280;34770;49.272;11.070;2022-11-24T11:28:26;97426.22;;;6.43;100.00
16030;BME280;34770;49.272;11.070;2022-11-24T11:30:58;97345.75;;;5.93;100.00
16030;BME280;34770;49.272;11.070;2022-11-24T11:56:41;97400.19;;;6.65;100.00
16030;BME280;34770;49.272;11.070;2022-11-24T12:25:49;97346.13;;;7.01;100.00
16030;BME280;34770;49.272;11.070;2022-11-24T12:28:42;97450.72;;;7.66;100.00
16030;BME280;34770;49.272;11.070;2022-11-24T12:31:40;97442.28;;;8.61;100.00
16030;BME280;34770;49.272;11.070;2022-11-24T13:57:36;97523.94;;;7.77;100.00
16030;BME280;34770;49.272;11.070;2022-11-24T14:00:30;97440.19;;;7.34;100.00
16030;BME280;34770;49.272;11.070;2022-11-24T14:03:03;97407.00;;;7.01;100.00
16030;BME280;34770;49.272;11.070;2022-11-24T14:57:34;97563.97;;;7.34;100.00
16030;BME280;34770;49.272;11.070;2022-11-24T15:47:05;97486.34;;;5.38;100.00
16030;BME280;34770;49.272;11.070;2022-11-24T16:18:32;97542.47;;;4.37;100.00
16030;BME280;34770;49.272;11.070;2022-11-24T20:09:20;97749.63;;;2.23;100.00
16030;BME280;34770;49.272;11.070;2022-11-24T20:11:45;97736.06;;;2.13;100.00
16030;BME280;34770;49.272;11.070;2022-11-24T20:14:13;97749.81;;;2.27;100.00
16030;BME280;34770;49.272;11.070;2022-11-24T20:16:39;97747.59;;;2.15;100.00
16030;BME280;34770;49.272;11.070;2022-11-24T20:19:08;97746.28;;;2.26;100.00
16030;BME280;34770;49.272;11.070;2022-11-24T20:21:36;97735.44;;;2.02;100.00
16030;BME280;34770;49.272;11.070;2022-11-24T20:24:03;97746.75;;;2.14;100.00
16030;BME280;34770;49.272;11.070;2022-11-24T20:26:32;97749.19;;;2.16;100.00
16030;BME280;34770;49.272;11.070;2022-11-24T20:28:58;97725.13;;;1.94;100.00
16030;BME280;34770;49.272;11.070;2022-11-24T20:31:26;97746.94;;;2.04;100.00
16030;BME280;34770;49.272;11.070;2022-11-24T20:33:52;97709.63;;;1.70;100.00
16030;BME280;34770;49.272;11.070;2022-11-24T20:36:20;97733.78;;;1.87;100.00
16030;BME280;34770;49.272;11.070;2022-11-24T20:38:47;97748.38;;;1.82;100.00
16030;BME280;34770;49.272;11.070;2022-11-24T20:41:15;97751.28;;;1.72;100.00
16030;BME280;34770;49.272;11.070;2022-11-24T20:43:42;97732.69;;;1.69;100.00
16030;BME280;34770;49.272;11.070;2022-11-24T20:46:10;97739.31;;;1.82;100.00
16030;BME280;34770;49.272;11.070;2022-11-24T20:48:36;97749.53;;;1.95;100.00
16030;BME280;34770;49.272;11.070;2022-11-24T20:51:10;97728.44;;;1.77;100.00
16030;BME280;34770;49.272;11.070;2022-11-24T20:53:36;97744.00;;;1.81;100.00
16030;BME280;34770;49.272;11.070;2022-11-24T20:56:14;97741.16;;;1.86;100.00
16030;BME280;34770;49.272;11.070;2022-11-24T20:58:40;97739.94;;;1.79;100.00
16030;BME280;34770;49.272;11.070;2022-11-24T21:01:11;97746.75;;;1.81;100.00
16030;BME280;34770;49.272;11.070;2022-11-24T21:03:37;97742.78;;;1.73;100.00
16030;BME280;34770;49.272;11.070;2022-11-24T21:06:03;97729.41;;;1.67;100.00
16030;BME280;34770;49.272;11.070;2022-11-24T21:08:31;97741.06;;;1.58;100.00
16030;BME280;34770;49.272;11.070;2022-11-24T21:10:58;97741.66;;;1.55;100.00
16030;BME280;34770;49.272;11.070;2022-11-24T21:13:24;97756.72;;;1.58;100.00
16030;BME280;34770;49.272;11.070;2022-11-24T21:15:50;97722.06;;;1.43;100.00
16030;BME280;34770;49.272;11.070;2022-11-24T21:18:16;97755.28;;;1.61;100.00
16030;BME280;34770;49.272;11.070;2022-11-24T21:20:42;97728.53;;;1.33;100.00
16030;BME280;34770;49.272;11.070;2022-11-24T21:23:08;97746.31;;;1.55;100.00
16030;BME280;34770;49.272;11.070;2022-11-24T21:25:34;97735.56;;;1.39;100.00
16030;BME280;34770;49.272;11.070;2022-11-24T21:27:59;97753.97;;;1.39;100.00
16030;BME280;34770;49.272;11.070;2022-11-24T21:30:24;97757.25;;;0.98;100.00
16030;BME280;34770;49.272;11.070;2022-11-24T21:32:50;97762.16;;;1.01;100.00
16030;BME280;34770;49.272;11.070;2022-11-24T21:35:15;97757.06;;;1.13;100.00
16030;BME280;34770;49.272;11.070;2022-11-24T21:37:40;97755.97;;;1.14;100.00
16030;BME280;34770;49.272;11.070;2022-11-24T21:40:06;97731.53;;;0.93;100.00
16030;BME280;34770;49.272;11.070;2022-11-24T21:42:32;97749.25;;;1.01;100.00
16030;BME280;34770;49.272;11.070;2022-11-24T21:44:57;97757.47;;;1.01;100.00
16030;BME280;34770;49.272;11.070;2022-11-24T21:47:26;97759.03;;;1.07;100.00
16030;BME280;34770;49.272;11.070;2022-11-24T21:49:52;97731.31;;;0.90;100.00
16030;BME280;34770;49.272;11.070;2022-11-24T21:52:17;97762.50;;;0.94;100.00
16030;BME280;34770;49.272;11.070;2022-11-24T21:54:43;97699.50;;;0.45;100.00
16030;BME280;34770;49.272;11.070;2022-11-24T21:57:08;97739.41;;;0.52;100.00
16030;BME280;34770;49.272;11.070;2022-11-24T21:59:34;97737.16;;;0.59;100.00
16030;BME280;34770;49.272;11.070;2022-11-24T22:01:59;97712.09;;;0.46;100.00
16030;BME280;34770;49.272;11.070;2022-11-24T22:04:24;97737.53;;;0.71;100.00
16030;BME280;34770;49.272;11.070;2022-11-24T22:06:51;97754.53;;;0.73;100.00
16030;BME280;34770;49.272;11.070;2022-11-24T22:09:17;97761.03;;;0.77;100.00
16030;BME280;34770;49.272;11.070;2022-11-24T22:11:42;97770.66;;;0.75;100.00
16030;BME280;34770;49.272;11.070;2022-11-24T22:14:08;97742.00;;;0.67;100.00
16030;BME280;34770;49.272;11.070;2022-11-24T22:16:34;97742.75;;;0.73;100.00
16030;BME280;34770;49.272;11.070;2022-11-24T22:18:59;97739.31;;;0.62;100.00
16030;BME280;34770;49.272;11.070;2022-11-24T22:21:25;97723.38;;;0.64;100.00
16030;BME280;34770;49.272;11.070;2022-11-24T22:23:58;97708.53;;;0.46;100.00
16030;BME280;34770;49.272;11.070;2022-11-24T22:26:24;97725.03;;;0.65;100.00
16030;BME280;34770;49.272;11.070;2022-11-24T22:28:50;97724.56;;;0.58;100.00
16030;BME280;34770;49.272;11.070;2022-11-24T22:31:19;97762.16;;;0.76;100.00
16030;BME280;34770;49.272;11.070;2022-11-24T22:33:45;97772.91;;;0.73;100.00
16030;BME280;34770;49.272;11.070;2022-11-24T22:36:12;97734.00;;;0.46;100.00
16030;BME280;34770;49.272;11.070;2022-11-24T22:38:38;97742.69;;;0.54;100.00
16030;BME280;34770;49.272;11.070;2022-11-24T22:41:09;97751.94;;;0.58;100.00
16030;BME280;34770;49.272;11.070;2022-11-24T22:43:36;97758.59;;;0.52;100.00
16030;BME280;34770;49.272;11.070;2022-11-24T22:46:09;97752.31;;;0.51;100.00
16030;BME280;34770;49.272;11.070;2022-11-24T22:48:35;97737.03;;;0.45;100.00
16030;BME280;34770;49.272;11.070;2022-11-24T22:51:20;97728.34;;;0.38;100.00
16030;BME280;34770;49.272;11.070;2022-11-24T22:53:48;97753.22;;;0.41;100.00
16030;BME280;34770;49.272;11.070;2022-11-24T22:56:14;97741.69;;;0.44;100.00
16030;BME280;34770;49.272;11.070;2022-11-24T22:58:39;97747.69;;;0.46;100.00
16030;BME280;34770;49.272;11.070;2022-11-24T23:03:36;97746.44;;;0.34;100.00
16030;BME280;34770;49.272;11.070;2022-11-24T23:06:13;97744.25;;;0.36;100.00
16030;BME280;34770;49.272;11.070;2022-11-24T23:08:39;97711.13;;;0.08;100.00
16030;BME280;34770;49.272;11.070;2022-11-24T23:11:07;97706.50;;;0.03;100.00
16030;BME280;34770;49.272;11.070;2022-11-24T23:13:33;97737.53;;;0.23;100.00
16030;BME280;34770;49.272;11.070;2022-11-24T23:16:00;97747.91;;;0.26;100.00
16030;BME280;34770;49.272;11.070;2022-11-24T23:18:26;97742.19;;;0.22;100.00
16030;BME280;34770;49.272;11.070;2022-11-24T23:20:51;97743.78;;;0.28;100.00
16030;BME280;34770;49.272;11.070;2022-11-24T23:23:16;97712.66;;;0.19;100.00
16030;BME280;34770;49.272;11.070;2022-11-24T23:25:42;97707.53;;;0.12;100.00
16030;BME280;34770;49.272;11.070;2022-11-24T23:28:07;97699.41;;;0.02;100.00
16030;BME280;34770;49.272;11.070;2022-11-24T23:30:33;97702.91;;;0.08;100.00
16030;BME280;34770;49.272;11.070;2022-11-24T23:32:58;97727.50;;;0.13;100.00
16030;BME280;34770;49.272;11.070;2022-11-24T23:35:23;97714.19;;;0.01;100.00
16030;BME280;34770;49.272;11.070;2022-11-24T23:37:49;97745.78;;;0.18;100.00
16030;BME280;34770;49.272;11.070;2022-11-24T23:40:15;97736.28;;;0.10;100.00
16030;BME280;34770;49.272;11.070;2022-11-24T23:42:40;97744.69;;;0.19;100.00
16030;BME280;34770;49.272;11.070;2022-11-24T23:45:06;97747.97;;;0.21;100.00
16030;BME280;34770;49.272;11.070;2022-11-24T23:47:32;97704.38;;;-0.05;100.00
16030;BME280;34770;49.272;11.070;2022-11-24T23:49:58;97698.44;;;-0.12;100.00
16030;BME280;34770;49.272;11.070;2022-11-24T23:52:23;97734.53;;;0.19;100.00
16030;BME280;34770;49.272;11.070;2022-11-24T23:54:49;97710.09;;;-0.02;100.00
16030;BME280;34770;49.272;11.070;2022-11-24T23:57:14;97718.50;;;0.07;100.00
16030;BME280;34770;49.272;11.070;2022-11-24T23:59:39;97731.28;;;0.17;100.00
